Time;durP1;ratioP1;P1;durP2;ratioP2;P2;SDS_P1;SDS_P2;PMS_P1;PMS_P2;Temp;Humidity;BMP_temperature;BMP_pressure;BME280_temperature;BME280_humidity;BME280_pressure;Samples;Min_cycle;Max_cycle;Signal;HPM_P1;HPM_P2
2021/12/04 00:00:02;;;;;;;2.30;2.10;;;1.70;99.90;;;;;;482452;246;27445;-74
2021/12/04 00:02:06;;;;;;;2.25;2.15;;;1.70;99.90;;;;;;482422;246;27407;-74
2021/12/04 00:04:07;;;;;;;2.33;2.22;;;1.70;99.90;;;;;;482425;246;27875;-73
2021/12/04 00:06:14;;;;;;;1.92;1.77;;;1.70;99.90;;;;;;482455;246;27947;-73
2021/12/04 00:08:10;;;;;;;2.22;2.12;;;1.70;99.90;;;;;;482066;246;27459;-74
2021/12/04 00:10:17;;;;;;;1.87;1.77;;;1.80;99.90;;;;;;482454;246;27485;-74
2021/12/04 00:12:12;;;;;;;2.20;2.00;;;1.70;99.90;;;;;;482020;246;27436;-74
2021/12/04 00:14:13;;;;;;;2.22;2.12;;;1.70;99.90;;;;;;482486;246;27489;-73
2021/12/04 00:16:15;;;;;;;2.25;2.15;;;1.70;99.90;;;;;;482418;246;27524;-74
2021/12/04 00:18:16;;;;;;;2.03;1.92;;;1.80;99.90;;;;;;482495;246;27441;-72
2021/12/04 00:20:17;;;;;;;2.03;1.85;;;1.70;99.90;;;;;;482464;246;27425;-71
2021/12/04 00:22:18;;;;;;;2.30;2.00;;;1.80;99.90;;;;;;482435;246;27500;-72
2021/12/04 00:24:20;;;;;;;1.95;1.85;;;1.80;99.90;;;;;;482450;246;27400;-72
2021/12/04 00:26:21;;;;;;;2.00;1.90;;;1.80;99.90;;;;;;482444;246;27410;-74
2021/12/04 00:28:22;;;;;;;1.90;1.80;;;1.80;99.90;;;;;;482449;246;27442;-74
2021/12/04 00:30:25;;;;;;;2.00;1.90;;;1.80;99.90;;;;;;482456;246;27870;-73
2021/12/04 00:32:33;;;;;;;2.28;2.10;;;1.80;99.90;;;;;;482343;246;27931;-74
2021/12/04 00:34:34;;;;;;;5.35;1.85;;;1.80;99.90;;;;;;482325;246;27819;-73
2021/12/04 00:36:54;;;;;;;1.70;1.60;;;1.80;99.90;;;;;;482339;246;27421;-73
2021/12/04 00:43:26;;;;;;;2.22;2.00;;;1.80;99.90;;;;;;482440;246;27948;-73
2021/12/04 00:49:59;;;;;;;2.03;1.92;;;1.80;99.90;;;;;;482414;246;27457;-73
2021/12/04 00:52:00;;;;;;;1.73;1.73;;;1.80;99.90;;;;;;482435;246;27559;-74
2021/12/04 00:54:02;;;;;;;2.20;2.10;;;1.80;99.90;;;;;;482370;246;27417;-73
2021/12/04 00:56:03;;;;;;;1.55;1.55;;;1.70;99.90;;;;;;482332;246;27551;-74
2021/12/04 00:58:04;;;;;;;1.95;1.80;;;1.80;99.90;;;;;;482382;246;28898;-73
2021/12/04 01:00:06;;;;;;;2.90;2.50;;;1.80;99.90;;;;;;482412;246;27917;-73
2021/12/04 01:02:07;;;;;;;1.67;1.58;;;1.80;99.90;;;;;;482417;246;27984;-74
2021/12/04 01:04:08;;;;;;;1.85;1.75;;;1.80;99.90;;;;;;482414;246;27979;-73
2021/12/04 01:06:09;;;;;;;2.17;2.08;;;1.80;99.90;;;;;;482387;246;27472;-73
2021/12/04 01:08:10;;;;;;;1.65;1.58;;;1.70;99.90;;;;;;482407;246;27503;-73
2021/12/04 01:10:12;;;;;;;2.00;1.90;;;1.70;99.90;;;;;;482438;246;27392;-74
2021/12/04 01:12:13;;;;;;;1.73;1.62;;;1.60;99.90;;;;;;482456;246;27524;-74
2021/12/04 01:14:14;;;;;;;1.80;1.70;;;1.60;99.90;;;;;;482444;246;27402;-74
2021/12/04 01:16:15;;;;;;;1.80;1.70;;;1.60;99.90;;;;;;482431;246;27480;-74
2021/12/04 01:18:17;;;;;;;1.33;1.30;;;1.60;99.90;;;;;;482506;246;27476;-74
2021/12/04 01:20:18;;;;;;;1.50;1.40;;;1.60;99.90;;;;;;482479;246;27504;-73
2021/12/04 01:22:20;;;;;;;1.73;1.62;;;1.60;99.90;;;;;;482485;246;27465;-74
2021/12/04 01:24:20;;;;;;;1.73;1.62;;;1.70;99.90;;;;;;482388;246;27481;-73
2021/12/04 01:26:22;;;;;;;1.52;1.52;;;1.60;99.90;;;;;;482397;246;27928;-74
2021/12/04 01:28:23;;;;;;;2.00;1.90;;;1.60;99.90;;;;;;482477;246;28104;-74
2021/12/04 01:30:24;;;;;;;1.70;1.60;;;1.60;99.90;;;;;;482451;246;27944;-73
2021/12/04 01:32:25;;;;;;;1.65;1.60;;;1.60;99.90;;;;;;482452;246;28046;-74
2021/12/04 01:34:27;;;;;;;1.60;1.50;;;1.60;99.90;;;;;;482446;246;27481;-74
2021/12/04 01:36:29;;;;;;;1.70;1.60;;;1.60;99.90;;;;;;482461;246;27432;-74
2021/12/04 01:38:29;;;;;;;1.50;1.50;;;1.60;99.90;;;;;;482460;246;27460;-74
2021/12/04 01:40:30;;;;;;;1.50;1.40;;;1.60;99.90;;;;;;482425;246;27487;-73
2021/12/04 01:42:35;;;;;;;1.40;1.40;;;1.60;99.90;;;;;;482449;246;27465;-74
2021/12/04 01:44:33;;;;;;;1.70;1.60;;;1.60;99.90;;;;;;482237;246;27408;-73
2021/12/04 01:46:34;;;;;;;1.20;1.20;;;1.50;99.90;;;;;;482490;246;27449;-73
2021/12/04 01:48:35;;;;;;;1.33;1.33;;;1.50;99.90;;;;;;482453;246;27445;-76
2021/12/04 01:50:37;;;;;;;1.20;1.20;;;1.50;99.90;;;;;;482453;246;27447;-73
2021/12/04 01:52:38;;;;;;;1.20;1.20;;;1.60;99.90;;;;;;482423;246;27441;-74
2021/12/04 01:54:40;;;;;;;1.30;1.20;;;1.60;99.90;;;;;;482431;246;28441;-73
2021/12/04 01:56:40;;;;;;;1.33;1.30;;;1.60;99.90;;;;;;482435;246;27884;-73
2021/12/04 01:58:42;;;;;;;1.27;1.27;;;1.60;99.90;;;;;;482473;246;28027;-74
2021/12/04 02:00:43;;;;;;;1.50;1.40;;;1.60;99.90;;;;;;482411;246;27967;-73
2021/12/04 02:02:44;;;;;;;1.30;1.30;;;1.60;99.90;;;;;;482443;246;27440;-73
2021/12/04 02:04:45;;;;;;;1.37;1.30;;;1.60;99.90;;;;;;482448;246;27444;-75
2021/12/04 02:06:47;;;;;;;1.20;1.10;;;1.60;99.90;;;;;;482476;246;27408;-74
2021/12/04 02:08:48;;;;;;;1.30;1.20;;;1.50;99.90;;;;;;482415;246;27441;-74
2021/12/04 02:10:49;;;;;;;1.30;1.30;;;1.50;99.90;;;;;;482420;246;27517;-72
2021/12/04 02:12:51;;;;;;;1.50;1.40;;;1.50;99.90;;;;;;482433;246;27546;-74
2021/12/04 02:14:52;;;;;;;1.80;1.30;;;1.50;99.90;;;;;;482502;246;27508;-74
2021/12/04 02:16:53;;;;;;;1.05;1.05;;;1.60;99.90;;;;;;482422;246;27412;-73
2021/12/04 02:18:54;;;;;;;1.23;1.23;;;1.50;99.90;;;;;;482420;246;27523;-73
2021/12/04 02:20:55;;;;;;;1.30;1.20;;;1.50;99.90;;;;;;482365;246;27500;-73
2021/12/04 02:22:57;;;;;;;1.15;1.15;;;1.50;99.90;;;;;;482417;246;27881;-73
2021/12/04 02:24:58;;;;;;;1.25;1.25;;;1.50;99.90;;;;;;482409;246;27986;-73
2021/12/04 02:26:59;;;;;;;1.20;1.20;;;1.50;99.90;;;;;;482444;246;27856;-73
2021/12/04 02:29:00;;;;;;;1.10;1.10;;;1.50;99.90;;;;;;482450;246;27899;-73
2021/12/04 02:31:02;;;;;;;1.55;1.50;;;1.50;99.90;;;;;;482439;246;27396;-73
2021/12/04 02:33:11;;;;;;;1.48;1.48;;;1.50;99.90;;;;;;482480;246;27394;-73
2021/12/04 02:35:04;;;;;;;1.50;1.50;;;1.50;99.90;;;;;;481876;246;27432;-73
2021/12/04 02:37:05;;;;;;;1.20;1.20;;;1.50;99.90;;;;;;482425;246;27539;-72
2021/12/04 02:39:07;;;;;;;1.50;1.40;;;1.60;99.90;;;;;;482412;246;27436;-73
2021/12/04 02:41:09;;;;;;;1.30;1.30;;;1.60;99.90;;;;;;482444;246;27509;-72
2021/12/04 02:43:09;;;;;;;1.60;1.50;;;1.60;99.90;;;;;;482372;246;27485;-73
2021/12/04 02:45:10;;;;;;;1.50;1.40;;;1.60;99.90;;;;;;482456;246;27563;-74
2021/12/04 02:47:12;;;;;;;1.40;1.40;;;1.60;99.90;;;;;;482445;246;27432;-73
2021/12/04 02:49:15;;;;;;;1.62;1.52;;;1.60;99.90;;;;;;482452;246;27438;-73
2021/12/04 02:51:19;;;;;;;1.85;1.75;;;1.70;99.90;;;;;;482324;246;28478;-73
2021/12/04 02:53:17;;;;;;;1.48;1.48;;;1.70;99.90;;;;;;482231;246;28025;-73
2021/12/04 02:55:17;;;;;;;1.58;1.52;;;1.70;99.90;;;;;;482241;246;27911;-73
2021/12/04 02:57:18;;;;;;;1.70;1.60;;;1.70;99.90;;;;;;482213;246;27854;-73
2021/12/04 02:59:19;;;;;;;1.20;1.20;;;1.70;99.90;;;;;;482152;246;27463;-73
2021/12/04 03:01:20;;;;;;;1.30;1.30;;;1.70;99.90;;;;;;482414;246;27533;-73
2021/12/04 03:03:22;;;;;;;1.40;1.35;;;1.60;99.90;;;;;;482405;246;27401;-74
2021/12/04 03:05:24;;;;;;;1.65;1.55;;;1.60;99.90;;;;;;482439;246;27448;-74
2021/12/04 03:07:24;;;;;;;1.30;1.30;;;1.60;99.90;;;;;;482372;246;27442;-74
2021/12/04 03:09:25;;;;;;;1.60;1.50;;;1.60;99.90;;;;;;482408;246;27461;-73
2021/12/04 03:11:27;;;;;;;1.50;1.40;;;1.70;99.90;;;;;;482451;246;27511;-74
2021/12/04 03:13:28;;;;;;;1.83;1.73;;;1.70;99.90;;;;;;482450;246;27421;-73
2021/12/04 03:15:29;;;;;;;1.83;1.70;;;1.70;99.90;;;;;;482431;246;27531;-73
2021/12/04 03:17:31;;;;;;;1.75;1.65;;;1.70;99.90;;;;;;482438;246;27405;-74
2021/12/04 03:19:32;;;;;;;1.50;1.40;;;1.70;99.90;;;;;;482435;246;27890;-73
2021/12/04 03:21:34;;;;;;;1.42;1.37;;;1.70;99.90;;;;;;482450;246;27924;-74
2021/12/04 03:23:41;;;;;;;1.60;1.50;;;1.70;99.90;;;;;;482403;246;27844;-73
2021/12/04 03:25:36;;;;;;;1.70;1.60;;;1.70;99.90;;;;;;481963;246;28019;-73
2021/12/04 03:27:39;;;;;;;1.40;1.33;;;1.70;99.90;;;;;;482420;246;27432;-74
2021/12/04 03:29:42;;;;;;;2.12;2.03;;;1.70;99.90;;;;;;482356;246;27452;-73
2021/12/04 03:32:06;;;;;;;1.58;1.50;;;1.70;99.90;;;;;;482214;246;27448;-72
2021/12/04 03:42:34;;;;;;;1.83;1.73;;;1.80;99.90;;;;;;482453;246;27388;-73
2021/12/04 03:44:35;;;;;;;1.60;1.50;;;1.80;99.90;;;;;;482457;246;27437;-74
2021/12/04 03:46:37;;;;;;;1.75;1.65;;;1.80;99.90;;;;;;482440;246;27509;-74
2021/12/04 03:50:39;;;;;;;1.52;1.45;;;1.80;99.90;;;;;;482473;246;27863;-74
2021/12/04 03:52:40;;;;;;;1.70;1.60;;;1.80;99.90;;;;;;482454;246;27406;-74
2021/12/04 03:54:42;;;;;;;1.42;1.33;;;1.80;99.90;;;;;;482477;246;27519;-74
2021/12/04 03:56:43;;;;;;;1.40;1.40;;;1.80;99.90;;;;;;482466;246;27409;-73
2021/12/04 03:58:44;;;;;;;1.27;1.27;;;1.80;99.90;;;;;;482449;246;27439;-73
2021/12/04 04:00:45;;;;;;;1.45;1.40;;;1.80;99.90;;;;;;482453;246;27469;-74
2021/12/04 04:02:47;;;;;;;1.40;1.40;;;1.80;99.90;;;;;;482485;246;27852;-73
2021/12/04 04:04:48;;;;;;;1.25;1.25;;;1.80;99.90;;;;;;482496;246;27911;-73
2021/12/04 04:06:49;;;;;;;1.30;1.30;;;1.80;99.90;;;;;;482438;246;27971;-73
2021/12/04 04:08:50;;;;;;;1.50;1.50;;;1.80;99.90;;;;;;482446;246;27982;-73
2021/12/04 04:10:53;;;;;;;1.42;1.40;;;1.80;99.90;;;;;;482456;246;27523;-74
2021/12/04 04:12:53;;;;;;;1.55;1.45;;;1.80;99.90;;;;;;482378;246;27524;-73
2021/12/04 04:14:54;;;;;;;1.20;1.20;;;1.80;99.90;;;;;;482464;246;27524;-73
2021/12/04 04:16:56;;;;;;;1.27;1.27;;;1.80;99.90;;;;;;482437;246;27507;-73
2021/12/04 04:18:57;;;;;;;1.27;1.17;;;1.80;99.90;;;;;;482451;246;27410;-73
2021/12/04 04:20:58;;;;;;;1.20;1.20;;;1.80;99.90;;;;;;482436;246;27456;-74
2021/12/04 04:22:59;;;;;;;1.50;1.50;;;1.80;99.90;;;;;;482446;246;27412;-73
2021/12/04 04:25:00;;;;;;;1.50;1.40;;;1.80;99.90;;;;;;482428;246;27517;-73
2021/12/04 04:27:02;;;;;;;1.35;1.35;;;1.80;99.90;;;;;;482436;244;27437;-72
2021/12/04 04:29:03;;;;;;;1.40;1.40;;;1.80;99.90;;;;;;482469;246;27475;-73
2021/12/04 04:31:05;;;;;;;1.20;1.20;;;1.80;99.90;;;;;;482440;246;27924;-74
2021/12/04 04:33:06;;;;;;;1.15;1.15;;;1.80;99.90;;;;;;482392;246;28087;-72
2021/12/04 04:35:20;;;;;;;1.23;1.23;;;1.80;99.90;;;;;;482431;246;27916;-73
2021/12/04 04:37:29;;;;;;;1.40;1.40;;;1.80;99.90;;;;;;482010;246;27396;-73
2021/12/04 05:13:21;;;;;;;1.08;1.08;;;1.80;99.90;;;;;;482467;246;27436;-72
2021/12/04 05:15:21;;;;;;;1.12;1.12;;;1.90;99.90;;;;;;482206;246;27404;-72
2021/12/04 05:17:40;;;;;;;1.08;1.08;;;1.90;99.90;;;;;;482113;246;27846;-73
2021/12/04 05:19:37;;;;;;;1.10;1.10;;;1.90;99.90;;;;;;481333;246;27946;-73
2021/12/04 05:21:26;;;;;;;1.08;1.08;;;1.90;99.90;;;;;;481660;246;28003;-74
2021/12/04 05:23:28;;;;;;;1.50;1.00;;;1.90;99.90;;;;;;482454;246;27545;-74
2021/12/04 05:25:30;;;;;;;1.17;1.17;;;1.90;99.90;;;;;;482425;246;27544;-75
2021/12/04 05:27:30;;;;;;;1.05;1.05;;;1.90;99.90;;;;;;482428;246;27406;-73
2021/12/04 05:29:31;;;;;;;1.10;1.10;;;1.90;99.90;;;;;;482458;246;27441;-73
2021/12/04 05:31:33;;;;;;;1.00;1.00;;;1.90;99.90;;;;;;482436;246;27485;-73
2021/12/04 05:33:34;;;;;;;1.00;1.00;;;1.90;99.90;;;;;;482436;246;27428;-74
2021/12/04 05:35:35;;;;;;;1.00;1.00;;;1.90;99.90;;;;;;482458;246;27884;-74
2021/12/04 05:37:36;;;;;;;1.05;1.05;;;2.00;99.90;;;;;;482491;246;27490;-73
2021/12/04 05:39:38;;;;;;;1.10;1.10;;;2.00;99.90;;;;;;482438;246;27441;-73
2021/12/04 05:41:39;;;;;;;1.00;1.00;;;2.00;99.90;;;;;;482474;246;27405;-72
2021/12/04 05:43:40;;;;;;;1.08;1.08;;;2.00;99.90;;;;;;482426;246;27439;-73
2021/12/04 05:45:51;;;;;;;1.00;1.00;;;2.00;99.90;;;;;;482471;246;27948;-73
2021/12/04 05:50:15;;;;;;;0.93;0.93;;;2.00;99.90;;;;;;482426;246;27449;-72
2021/12/04 05:54:29;;;;;;;0.90;0.90;;;2.10;99.90;;;;;;482455;246;27401;-72
2021/12/04 05:56:08;;;;;;;0.98;0.98;;;2.10;99.90;;;;;;480847;246;27433;-73
2021/12/04 05:58:10;;;;;;;0.90;0.90;;;2.10;99.90;;;;;;482452;246;27519;-74
2021/12/04 06:00:11;;;;;;;1.00;1.00;;;2.10;99.90;;;;;;482483;246;27864;-73
2021/12/04 06:02:12;;;;;;;1.00;1.00;;;2.10;99.90;;;;;;482484;244;28007;-73
2021/12/04 06:04:13;;;;;;;1.12;1.12;;;2.10;99.90;;;;;;482436;246;28014;-73
2021/12/04 06:06:15;;;;;;;0.95;0.95;;;2.10;99.90;;;;;;482485;246;28966;-73
2021/12/04 06:08:16;;;;;;;1.05;1.05;;;2.10;99.90;;;;;;482447;246;27445;-73
2021/12/04 06:10:17;;;;;;;1.00;1.00;;;2.10;99.90;;;;;;482475;246;27397;-73
2021/12/04 06:12:18;;;;;;;0.90;0.90;;;2.10;99.90;;;;;;482476;246;27438;-73
2021/12/04 06:14:20;;;;;;;0.80;0.80;;;2.20;99.90;;;;;;482452;246;27455;-72
2021/12/04 06:16:21;;;;;;;0.93;0.93;;;2.20;99.90;;;;;;482492;246;27405;-73
2021/12/04 06:18:22;;;;;;;1.00;1.00;;;2.20;99.90;;;;;;482455;246;27604;-73
2021/12/04 06:22:43;;;;;;;1.00;1.00;;;2.20;99.90;;;;;;482464;246;27460;-73
2021/12/04 06:24:44;;;;;;;0.90;0.90;;;2.20;99.90;;;;;;482468;246;27530;-74
2021/12/04 06:26:45;;;;;;;1.17;1.17;;;2.30;99.90;;;;;;482475;246;27416;-73
2021/12/04 06:28:46;;;;;;;1.20;1.20;;;2.30;99.90;;;;;;482439;246;27549;-73
2021/12/04 06:30:48;;;;;;;1.60;1.50;;;2.30;99.90;;;;;;482426;246;27483;-73
2021/12/04 06:32:50;;;;;;;1.65;1.55;;;2.30;99.90;;;;;;482461;246;27980;-72
2021/12/04 06:34:50;;;;;;;1.52;1.50;;;2.30;99.90;;;;;;482408;246;27982;-73
2021/12/04 06:36:51;;;;;;;1.67;1.58;;;2.30;99.90;;;;;;482462;246;27891;-72
2021/12/04 06:38:53;;;;;;;1.80;1.67;;;2.30;99.90;;;;;;482421;246;27493;-73
2021/12/04 06:40:54;;;;;;;1.75;1.65;;;2.30;99.90;;;;;;482415;246;27480;-72
2021/12/04 06:42:55;;;;;;;1.87;1.77;;;2.30;99.90;;;;;;482418;246;27537;-73
2021/12/04 06:44:57;;;;;;;2.17;2.05;;;2.30;99.90;;;;;;482485;246;27533;-74
2021/12/04 06:46:58;;;;;;;1.60;1.50;;;2.40;99.90;;;;;;482448;246;27397;-73
2021/12/04 06:49:04;;;;;;;1.70;1.60;;;2.40;99.90;;;;;;482445;246;27539;-73
2021/12/04 06:51:08;;;;;;;1.95;1.80;;;2.40;99.90;;;;;;482080;246;27426;-72
2021/12/04 06:53:09;;;;;;;1.45;1.27;;;2.40;99.90;;;;;;481997;246;27765;-74
2021/12/04 06:55:03;;;;;;;1.40;1.30;;;2.40;99.90;;;;;;481825;246;27543;-73
2021/12/04 06:57:08;;;;;;;1.37;1.30;;;2.40;99.90;;;;;;482454;246;27444;-72
2021/12/04 06:59:08;;;;;;;1.25;1.15;;;2.40;99.90;;;;;;482154;246;27473;-73
2021/12/04 07:01:06;;;;;;;1.40;1.30;;;2.40;99.90;;;;;;482295;246;28397;-72
2021/12/04 07:03:08;;;;;;;1.15;1.15;;;2.40;99.90;;;;;;482433;246;28020;-73
2021/12/04 07:05:09;;;;;;;1.30;1.20;;;2.40;99.90;;;;;;482436;246;27927;-73
2021/12/04 07:07:10;;;;;;;1.12;1.12;;;2.40;99.90;;;;;;482428;246;27886;-72
2021/12/04 07:09:11;;;;;;;1.15;1.15;;;2.40;99.90;;;;;;482460;246;27480;-72
2021/12/04 07:11:13;;;;;;;1.30;1.20;;;2.40;99.90;;;;;;482448;246;27564;-72
2021/12/04 07:13:14;;;;;;;1.17;1.17;;;2.50;99.90;;;;;;482433;246;27410;-73
2021/12/04 07:15:15;;;;;;;1.35;1.35;;;2.50;99.90;;;;;;482433;246;27463;-73
2021/12/04 07:17:16;;;;;;;1.08;1.08;;;2.50;99.90;;;;;;482409;246;27448;-72
2021/12/04 07:19:18;;;;;;;1.00;1.00;;;2.50;99.90;;;;;;482381;246;27441;-72
2021/12/04 07:21:19;;;;;;;1.10;1.10;;;2.60;99.90;;;;;;482463;246;27472;-74
2021/12/04 07:23:20;;;;;;;1.00;1.00;;;2.50;99.90;;;;;;482426;246;27420;-73
2021/12/04 07:25:21;;;;;;;1.10;1.10;;;2.60;99.90;;;;;;482427;246;27453;-72
2021/12/04 07:27:23;;;;;;;1.37;1.27;;;2.60;99.90;;;;;;482419;246;27783;-72
2021/12/04 07:29:24;;;;;;;1.20;1.20;;;2.60;99.90;;;;;;482438;246;27979;-72
2021/12/04 07:31:25;;;;;;;1.00;1.00;;;2.70;99.90;;;;;;482442;246;28034;-74
2021/12/04 07:33:26;;;;;;;1.10;1.10;;;2.70;99.90;;;;;;482437;246;27914;-72
2021/12/04 07:35:28;;;;;;;0.90;0.90;;;2.70;99.90;;;;;;482426;246;27989;-73
2021/12/04 07:37:29;;;;;;;1.10;1.10;;;2.70;99.90;;;;;;482436;246;27469;-73
2021/12/04 07:39:30;;;;;;;1.10;1.10;;;2.70;99.90;;;;;;482440;246;27433;-73
2021/12/04 07:41:31;;;;;;;1.00;1.00;;;2.80;99.90;;;;;;482443;246;27444;-73
2021/12/04 07:43:33;;;;;;;1.02;1.02;;;2.80;99.90;;;;;;482448;246;27397;-73
2021/12/04 07:45:34;;;;;;;1.10;1.10;;;2.80;99.90;;;;;;482438;246;27529;-74
2021/12/04 07:47:35;;;;;;;0.90;0.90;;;2.80;99.90;;;;;;482445;246;27438;-72
2021/12/04 07:49:39;;;;;;;1.00;1.00;;;2.80;99.90;;;;;;482425;246;27456;-73
2021/12/04 07:51:40;;;;;;;0.90;0.90;;;2.90;99.90;;;;;;482442;246;27485;-73
2021/12/04 07:53:42;;;;;;;0.88;0.88;;;2.90;99.90;;;;;;482423;246;27501;-75
2021/12/04 07:55:43;;;;;;;1.00;1.00;;;2.90;99.90;;;;;;482406;246;27496;-73
2021/12/04 07:57:44;;;;;;;0.90;0.90;;;3.00;99.90;;;;;;482425;246;27509;-73
2021/12/04 07:59:45;;;;;;;0.98;0.98;;;3.00;99.90;;;;;;482418;246;27513;-73
2021/12/04 08:01:47;;;;;;;1.00;1.00;;;3.00;99.90;;;;;;482424;246;27555;-73
2021/12/04 08:03:48;;;;;;;0.90;0.90;;;3.10;99.90;;;;;;482432;246;27489;-73
2021/12/04 08:05:50;;;;;;;1.02;1.02;;;3.10;99.90;;;;;;482451;246;27404;-73
2021/12/04 08:07:50;;;;;;;1.08;1.08;;;3.10;99.90;;;;;;482384;246;27467;-73
2021/12/04 08:09:52;;;;;;;1.00;1.00;;;3.10;99.90;;;;;;482424;246;27577;-74
2021/12/04 08:11:53;;;;;;;1.08;1.08;;;3.10;99.90;;;;;;482424;246;27965;-74
2021/12/04 08:13:54;;;;;;;1.00;1.00;;;3.20;99.90;;;;;;482456;246;27932;-74
2021/12/04 08:15:55;;;;;;;1.10;1.10;;;3.20;99.90;;;;;;482433;246;27937;-73
2021/12/04 08:17:57;;;;;;;1.20;1.20;;;3.20;99.90;;;;;;482438;246;27955;-74
2021/12/04 08:19:58;;;;;;;1.50;1.12;;;3.30;99.90;;;;;;482462;246;27568;-75
2021/12/04 08:21:59;;;;;;;1.00;1.00;;;3.30;99.90;;;;;;482478;246;27445;-73
2021/12/04 08:24:00;;;;;;;1.10;1.10;;;3.30;99.90;;;;;;482458;246;27519;-74
2021/12/04 08:26:02;;;;;;;1.00;1.00;;;3.30;99.90;;;;;;482458;246;27397;-73
2021/12/04 08:28:03;;;;;;;1.00;1.00;;;3.30;99.90;;;;;;482442;246;27432;-74
2021/12/04 08:30:04;;;;;;;1.10;1.10;;;3.40;99.90;;;;;;482441;246;27528;-75
2021/12/04 08:32:05;;;;;;;1.25;1.25;;;3.40;99.90;;;;;;482457;246;27414;-74
2021/12/04 08:34:07;;;;;;;1.10;1.10;;;3.40;99.90;;;;;;482439;246;27537;-73
2021/12/04 08:36:08;;;;;;;1.15;1.15;;;3.50;99.90;;;;;;482479;246;27481;-74
2021/12/04 08:38:09;;;;;;;1.17;1.17;;;3.50;99.90;;;;;;482479;246;27425;-73
2021/12/04 08:40:14;;;;;;;1.10;1.10;;;3.50;99.90;;;;;;482457;246;27953;-74
2021/12/04 08:42:12;;;;;;;0.95;0.95;;;3.50;99.90;;;;;;482201;246;27868;-73
2021/12/04 08:44:13;;;;;;;0.98;0.98;;;3.50;99.90;;;;;;482445;246;28012;-74
2021/12/04 08:46:16;;;;;;;1.33;1.23;;;3.60;99.90;;;;;;482453;246;27847;-73
2021/12/04 08:48:15;;;;;;;1.30;1.12;;;3.60;99.90;;;;;;482320;246;27550;-74
2021/12/04 08:50:17;;;;;;;1.00;1.00;;;3.60;99.90;;;;;;482462;246;27529;-74
2021/12/04 08:52:18;;;;;;;0.98;0.98;;;3.60;99.90;;;;;;482468;246;27409;-73
2021/12/04 08:54:19;;;;;;;1.05;1.05;;;3.70;99.90;;;;;;482460;246;27424;-74
2021/12/04 08:56:20;;;;;;;2.05;1.40;;;3.70;99.90;;;;;;482441;246;27460;-74
2021/12/04 08:58:22;;;;;;;2.67;1.80;;;3.70;99.90;;;;;;482453;246;27393;-74
2021/12/04 09:00:23;;;;;;;2.00;1.90;;;3.80;99.90;;;;;;482428;246;27445;-74
2021/12/04 09:02:24;;;;;;;1.80;1.70;;;3.80;99.90;;;;;;482457;246;27504;-74
2021/12/04 09:04:25;;;;;;;1.33;1.33;;;3.90;99.90;;;;;;482421;246;27531;-74
2021/12/04 09:06:27;;;;;;;1.70;1.60;;;4.00;99.90;;;;;;482473;246;27465;-75
2021/12/04 09:08:28;;;;;;;1.67;1.50;;;4.00;99.90;;;;;;482445;246;27942;-74
2021/12/04 09:10:29;;;;;;;1.40;1.30;;;4.00;99.90;;;;;;482453;246;27936;-74
2021/12/04 09:12:30;;;;;;;1.50;1.40;;;4.10;99.90;;;;;;482419;246;27850;-73
2021/12/04 09:14:32;;;;;;;1.40;1.30;;;4.10;99.90;;;;;;482412;246;28190;-74
2021/12/04 09:16:33;;;;;;;1.50;1.40;;;4.20;99.90;;;;;;482456;246;27935;-74
2021/12/04 09:18:35;;;;;;;1.40;1.40;;;4.20;99.90;;;;;;482474;246;27503;-73
2021/12/04 09:20:35;;;;;;;1.30;1.30;;;4.30;99.90;;;;;;482446;246;27520;-74
2021/12/04 09:22:37;;;;;;;1.30;1.30;;;4.30;99.90;;;;;;482457;246;27538;-74
2021/12/04 09:24:41;;;;;;;1.30;1.20;;;4.30;99.90;;;;;;482450;246;27437;-74
2021/12/04 09:29:10;;;;;;;1.20;1.20;;;4.30;99.90;;;;;;482427;246;27423;-74
2021/12/04 10:03:30;;;;;;;1.20;1.20;;;4.70;99.90;;;;;;482458;246;27433;-74
2021/12/04 10:05:38;;;;;;;2.08;1.98;;;4.70;99.90;;;;;;480858;246;27464;-74
2021/12/04 10:12:14;;;;;;;3.30;3.00;;;4.80;99.90;;;;;;482462;246;27418;-75
2021/12/04 10:22:49;;;;;;;3.08;2.87;;;5.00;99.90;;;;;;485409;245;27865;-74
2021/12/04 10:24:59;;;;;;;2.70;2.50;;;5.00;99.90;;;;;;484823;245;27397;-74
2021/12/04 10:33:49;;;;;;;1.87;1.77;;;5.00;99.90;;;;;;485347;245;27456;-74
2021/12/04 10:35:50;;;;;;;2.20;2.10;;;5.10;99.90;;;;;;485399;245;27467;-74
2021/12/04 10:37:52;;;;;;;1.80;1.70;;;5.00;99.90;;;;;;485388;245;27416;-74
2021/12/04 10:39:53;;;;;;;1.65;1.55;;;5.00;99.90;;;;;;485282;245;27451;-74
2021/12/04 10:41:55;;;;;;;1.42;1.42;;;5.00;99.90;;;;;;485352;245;27456;-74
2021/12/04 10:43:55;;;;;;;1.25;1.25;;;5.00;99.90;;;;;;485365;245;27887;-74
2021/12/04 10:45:57;;;;;;;1.25;1.25;;;5.00;99.90;;;;;;485399;245;28035;-75
2021/12/04 10:47:59;;;;;;;1.33;1.30;;;5.00;99.90;;;;;;485392;245;27863;-75
2021/12/04 10:51:07;;;;;;;1.40;1.40;;;5.00;99.90;;;;;;485335;245;28168;-74
2021/12/04 10:52:13;;;;;;;1.20;1.20;;;5.00;99.90;;;;;;481364;245;27528;-74
2021/12/04 10:54:11;;;;;;;1.20;1.20;;;5.00;99.90;;;;;;485157;245;27543;-74
2021/12/04 10:56:28;;;;;;;1.40;1.30;;;5.10;99.90;;;;;;485374;245;27519;-75
2021/12/04 11:00:33;;;;;;;1.20;1.20;;;5.10;99.90;;;;;;485292;245;27935;-74
2021/12/04 11:02:26;;;;;;;1.00;1.00;;;5.10;99.90;;;;;;484294;245;27920;-74
2021/12/04 11:06:59;;;;;;;1.00;1.00;;;5.20;99.90;;;;;;485373;245;27491;-74
2021/12/04 11:20:31;;;;;;;1.10;1.10;;;5.30;99.90;;;;;;485370;242;27875;-74
2021/12/04 11:22:32;;;;;;;1.27;1.20;;;5.30;99.90;;;;;;483655;245;27542;-74
2021/12/04 11:24:29;;;;;;;1.60;1.10;;;5.30;99.90;;;;;;483747;245;27534;-74
2021/12/04 11:29:00;;;;;;;1.00;1.00;;;5.40;99.90;;;;;;485369;245;27535;-75
2021/12/04 11:42:24;;;;;;;1.00;1.00;;;5.60;99.90;;;;;;485356;245;27408;-74
2021/12/04 11:44:33;;;;;;;0.80;0.80;;;5.60;99.90;;;;;;484859;245;27436;-75
2021/12/04 11:46:25;;;;;;;0.88;0.88;;;5.60;99.90;;;;;;484201;245;27419;-75
2021/12/04 11:48:23;;;;;;;1.00;1.00;;;5.70;99.90;;;;;;485177;245;27404;-74
2021/12/04 11:50:25;;;;;;;1.10;1.10;;;5.70;99.90;;;;;;485381;245;27399;-75
2021/12/04 11:52:26;;;;;;;1.00;1.00;;;5.70;99.90;;;;;;485371;245;27539;-75
2021/12/04 11:54:27;;;;;;;1.10;1.10;;;5.70;99.90;;;;;;485375;245;28001;-74
2021/12/04 11:56:28;;;;;;;1.20;1.20;;;5.70;99.90;;;;;;485333;245;27919;-75
2021/12/04 11:58:31;;;;;;;1.35;1.25;;;5.70;99.90;;;;;;485356;245;28903;-75
2021/12/04 12:00:31;;;;;;;1.70;1.60;;;5.80;99.90;;;;;;485310;245;27400;-74
2021/12/04 12:02:33;;;;;;;3.83;1.70;;;5.70;99.90;;;;;;485371;245;27547;-75
2021/12/04 12:04:33;;;;;;;1.80;1.70;;;5.80;99.90;;;;;;485346;245;27499;-74
2021/12/04 12:06:36;;;;;;;2.70;1.90;;;5.70;99.90;;;;;;485366;245;27451;-75
2021/12/04 12:08:36;;;;;;;2.30;1.80;;;5.70;99.90;;;;;;485325;245;27503;-75
2021/12/04 12:10:37;;;;;;;2.05;1.90;;;5.80;99.90;;;;;;485403;245;27466;-74
2021/12/04 12:12:39;;;;;;;2.20;2.00;;;5.90;99.90;;;;;;485402;245;27955;-75
2021/12/04 12:14:41;;;;;;;2.92;2.12;;;5.90;99.90;;;;;;485388;245;27964;-74
2021/12/04 12:16:41;;;;;;;2.37;2.20;;;5.90;99.90;;;;;;485347;245;27448;-75
2021/12/04 12:18:42;;;;;;;2.65;2.25;;;6.00;99.90;;;;;;485407;245;27443;-75
2021/12/04 12:20:51;;;;;;;2.10;2.00;;;6.00;99.90;;;;;;485399;245;27409;-75
2021/12/04 12:22:55;;;;;;;1.90;1.80;;;6.10;99.90;;;;;;485022;245;27452;-75
2021/12/04 12:27:10;;;;;;;1.70;1.60;;;6.10;99.90;;;;;;485387;245;27452;-74
2021/12/04 12:33:54;;;;;;;2.10;1.90;;;6.20;99.90;;;;;;485400;245;27549;-74
2021/12/04 12:38:03;;;;;;;1.70;1.60;;;6.10;99.90;;;;;;485395;245;27452;-74
2021/12/04 12:40:04;;;;;;;2.33;2.12;;;6.20;99.90;;;;;;485378;245;27487;-74
2021/12/04 12:42:06;;;;;;;1.90;1.80;;;6.20;99.90;;;;;;485369;245;27444;-75
2021/12/04 12:44:07;;;;;;;1.87;1.77;;;6.30;99.90;;;;;;485416;245;27451;-75
2021/12/04 12:46:08;;;;;;;1.95;1.85;;;6.30;99.90;;;;;;485391;245;27922;-75
2021/12/04 12:48:10;;;;;;;3.05;1.90;;;6.30;99.90;;;;;;485414;245;27915;-74
2021/12/04 12:50:13;;;;;;;1.77;1.67;;;6.30;99.90;;;;;;485358;245;27419;-75
2021/12/04 12:52:12;;;;;;;2.00;1.90;;;6.20;99.90;;;;;;485220;245;27420;-75
2021/12/04 12:54:13;;;;;;;1.70;1.60;;;6.30;99.90;;;;;;485234;245;27458;-75
2021/12/04 12:56:14;;;;;;;1.90;1.80;;;6.30;99.90;;;;;;484748;245;27446;-75
2021/12/04 12:58:16;;;;;;;1.87;1.77;;;6.30;99.90;;;;;;484786;245;27554;-75
2021/12/04 13:11:48;;;;;;;1.80;1.70;;;6.60;99.90;;;;;;485416;245;28003;-75
2021/12/04 13:13:50;;;;;;;1.70;1.60;;;6.60;99.90;;;;;;485420;245;27511;-74
2021/12/04 13:15:52;;;;;;;1.50;1.40;;;6.60;99.90;;;;;;485403;245;27408;-75
2021/12/04 13:17:53;;;;;;;1.25;1.25;;;6.60;99.90;;;;;;485354;245;27420;-75
2021/12/04 13:19:54;;;;;;;1.50;1.40;;;6.50;99.90;;;;;;485370;245;27447;-74
2021/12/04 13:21:55;;;;;;;1.50;1.40;;;6.60;99.90;;;;;;485404;245;27489;-74
2021/12/04 13:23:56;;;;;;;1.08;1.08;;;6.60;99.90;;;;;;485363;245;28019;-75
2021/12/04 13:25:57;;;;;;;1.20;1.10;;;6.60;99.90;;;;;;485410;245;28742;-74